Aérodrome :
LOGIN :

S'inscrire | Disclaimer

   EN    FR    IT 

 










Légende :    VFR   VFR Marginal   IFR   IFR Intensif   IFR Très Intensif
Visi : 
Plafond : 
>= 8 km
>= 3000ft
5 à 8 km
1000 à 3000 ft
1500m à 5 km
500 à 1000 ft
800 à 1500m
200 à 500 ft
< 800m
< 200 ft
Symboles :   Orages  Brouillard  Fortes neiges  Fortes précipitations  Vent > 20 kt
SIGMETs :   Divers  Orages  Givrage  Turbulence  Onde Orograph.  Cendres Volcan.







- Altitude de l'aérodrome : 1036 ft
- Code IATA : ERF


EDDE - Erfurt

DERNIER METAR :
  • 242050Z 29005KT 9999 SCT035 04/02 Q1021 NOSIG

METARs EXPIRÉS :
  • 242020Z 25006KT 9999 BKN039 04/03 Q1021 NOSIG
  • 241950Z 24006KT 9999 BKN033 05/04 Q1021 NOSIG
  • 241920Z 24006KT 9999 BKN035 05/04 Q1021 NOSIG
  • 241850Z 22007KT 8000 SCT036 05/03 Q1021 NOSIG
  • 241820Z 21007KT 8000 FEW033 05/03 Q1021 NOSIG

TAF TAF EDDE
Valide du 24 à 18h jusqu'au 25 à 18h UTC


241700Z 2418/2518 29007KT 9999 SCT020 BKN040
BECMG 2500/2502 26014KT
BECMG 2502/2505 27015G25KT
TEMPO 2506/2508 4500 SHRA BKN014CB
TEMPO 2508/2517 29020G35KT 3000 SHGS BKN012 BKN025CB
PROB30
TEMPO 2511/2515 1400 TSGS BKN008CB
Pas de NOTAMs connus pour ce terrain.



MET'MAP, la Météo Aéronautique d'un coup d'oeil ! - Copyright ORBIFLY Décembre 2007 - Disclaimer

ORBIFLY MET'MAP TEAM :

Programmation & Développement : Alexandra Zaïnal
Conception & Développement : Baudouin d'Aumeries
Co-Programmation & Développement : Marc-Olivier Méhu
Soutien technique & logistique : Manuel Goepfert

Contact : metmap@orbifly.com




SOURCES & CREDITS :

   NOAA